West Hollywood, California
Current Conditions -  °F | °C
As of 11:51 AM on Thursday 30 Oct 2014 (Local Time) from KSMO Reporting Station
Clear Clear  
Wind Chill: 72°   Ceiling: Unl
Heat Index: 72°   Visibility: 10mi
Dew Point: 59°   Wind: 10mph
Humidity: 64%   Direction: 240°WSW
Pressure: 29.99"   Gusts: NA
Location:  34.09°N, 118.37°W
Report Text: KSMO 301851Z 24009KT 10SM CLR 22/15 A2999 RMK AO2 SLP153 T02220150
Loading
Personal Weather Stations






























Interactive Weather Map
Tropical Storm Tracking
New forecast layout! Learn more

10-Day Weather Forecast

Advertisements
Track Severe Weather on mobile